Gatwick, United Kingdom
Current Conditions -  °F | °C
As of 12:20 PM on Wednesday 28 Jan 2015 (Local Time) from EGKK Reporting Station
Rain Showers Rain Showers  
Wind Chill: 40°   Ceiling: Unl
Heat Index: 48°   Visibility: 6mi
Dew Point: 41°   Wind: 29mph
Humidity: 76%   Direction: 270°W
Pressure: 29.53"   Gusts: 40mph
Location:  51.1°N, 0.15°W
Report Text: EGKK 281220Z 27025G35KT 9999 -SHRA FEW012 SCT028 09/05 Q1000
Loading
Personal Weather Stations






























Interactive Weather Map New forecast layout! Learn more

10-Day Weather Forecast

Advertisements
Track Severe Weather on mobile